KHYS/HYS METAR and TAF weather

Enter ICAO airport designator
Station Type Date Time Source
KHYS METAR 2020/06/02 16:56 UTC NOAA

KHYS 021656Z AUTO 19012KT 10SM CLR 28/18 A2996 RMK AO2 SLP126 T02830183


Station Type Date Time Source
KHYS Decoded METAR 2020/06/02 16:56 UTC NOAA

Hays, Hays Regional Airport, KS, United States (KHYS) 38-51N 099-16W
Jun 02, 2020 - 12:56 PM EDT / 2020.06.02 1656 UTC
Wind: from the S (190 degrees) at 14 MPH (12 KT):0
Visibility: 10 mile(s):0
Sky conditions: clear
Temperature: 82.9 F (28.3 C)
Dew Point: 64.9 F (18.3 C)
Relative Humidity: 54%
Pressure (altimeter): 29.96 in. Hg (1014 hPa)
ob: KHYS 021656Z AUTO 19012KT 10SM CLR 28/18 A2996 RMK AO2 SLP126 T02830183
cycle: 17

Station Type Date Time Source
KHYS TAF 2020/06/02 12:27 UTC NOAA

TAF
AMD KHYS 021225Z 0212/0312 19012KT P6SM SKC
FM021500 20015G25KT P6SM SCT250
FM030100 18008KT P6SM BKN100

Example: see airport list